Terminal Aerodrome Forecast
Issued by NWS

Home | Current Version | Previous Version | Text Only | Print | Product List | Glossary On
Versions: 1 2 3 4 5 6 7 8 9 10 11 12 13 14 15 16 17 18 19 20 21 22 23 24 25 26
000
FTUS45 KBOU 190539
TAFAPA
TAF
KAPA 190539Z 1906/2006 21008KT P6SM FEW110 SCT200
     FM191400 35007KT P6SM FEW080 SCT130 BKN200
     FM191600 04012G18KT P6SM SCT080 BKN130 BKN160
     FM191800 08011KT P6SM VCSH SCT070 BKN120 OVC150
     FM192100 11010KT P6SM VCSH SCT060 BKN090 OVC120 PROB30
      1921/2002 VRB18G35KT -TSRA BKN050CB
     FM200300 16008KT P6SM SCT080 BKN140
     FM200500 20012KT P6SM FEW100 SCT150=

USA.gov is the U.S. government's official web portal to all federal, state and local government web resources and services.